createdAt,value
2022-12-18T00:03:07.902Z,0.3
2022-12-18T00:08:09.279Z,0.4
2022-12-18T00:13:10.057Z,0.3
2022-12-18T00:18:07.787Z,0.3
2022-12-18T00:23:07.773Z,0.3
2022-12-18T00:28:07.796Z,0.3
2022-12-18T00:33:07.780Z,0.3
2022-12-18T00:38:07.787Z,0.2
2022-12-18T00:43:07.772Z,0.2
2022-12-18T00:48:07.783Z,0.2
2022-12-18T00:53:07.783Z,0.2
2022-12-18T00:58:07.861Z,0.2
2022-12-18T01:03:07.865Z,0.0
2022-12-18T01:08:07.776Z,0.0
2022-12-18T01:13:07.770Z,0.0
2022-12-18T01:18:07.854Z,0.0
2022-12-18T01:23:07.777Z,0.0
2022-12-18T01:28:07.860Z,-0.0
2022-12-18T01:33:07.769Z,-0.0
2022-12-18T01:38:07.784Z,-0.0
2022-12-18T01:43:07.767Z,-0.1
2022-12-18T01:48:07.899Z,-0.1
2022-12-18T01:53:07.789Z,-0.1
2022-12-18T01:58:07.864Z,-0.1
2022-12-18T02:03:07.849Z,-0.1
2022-12-18T02:08:07.859Z,-0.1
2022-12-18T02:13:07.773Z,-0.1
2022-12-18T02:18:07.866Z,-0.1
2022-12-18T02:23:07.771Z,-0.1
2022-12-18T02:28:07.863Z,-0.2
2022-12-18T02:33:07.767Z,-0.3
2022-12-18T02:38:07.868Z,-0.3
2022-12-18T02:43:07.773Z,-0.4
2022-12-18T02:48:07.866Z,-0.3
2022-12-18T02:53:07.779Z,-0.4
2022-12-18T02:58:07.894Z,-0.5
2022-12-18T03:03:07.845Z,-0.5
2022-12-18T03:08:07.784Z,-0.5
2022-12-18T03:13:07.778Z,-0.6
2022-12-18T03:18:07.784Z,-0.6
2022-12-18T03:23:07.781Z,-0.6
2022-12-18T03:28:07.873Z,-0.7
2022-12-18T03:33:07.780Z,-0.6
2022-12-18T03:38:07.868Z,-0.6
2022-12-18T03:43:07.792Z,-0.6
2022-12-18T03:48:07.781Z,-0.6
2022-12-18T03:53:07.795Z,-0.7
2022-12-18T03:58:07.866Z,-0.6
2022-12-18T04:03:07.858Z,-0.6
2022-12-18T04:08:07.793Z,-0.7
2022-12-18T04:13:07.760Z,-0.8
2022-12-18T04:18:07.815Z,-0.8
2022-12-18T04:23:07.781Z,-0.8
2022-12-18T04:28:07.887Z,-0.8
2022-12-18T04:33:07.802Z,-0.9
2022-12-18T04:38:07.866Z,-0.8
2022-12-18T04:43:07.827Z,-0.9
2022-12-18T04:48:07.865Z,-1.0
2022-12-18T04:53:07.785Z,-1.0
2022-12-18T04:58:07.868Z,-0.9
2022-12-18T05:03:07.800Z,-0.8
2022-12-18T05:08:07.896Z,-0.8
2022-12-18T05:13:07.781Z,-1.1
2022-12-18T05:18:07.862Z,-1.0
2022-12-18T05:23:07.782Z,-1.0
2022-12-18T05:28:07.868Z,-1.1
2022-12-18T05:33:07.856Z,-1.0
2022-12-18T05:38:07.861Z,-1.1
2022-12-18T05:43:07.790Z,-1.0
2022-12-18T05:48:07.897Z,-1.0
2022-12-18T05:53:07.777Z,-1.1
2022-12-18T05:58:07.877Z,-1.1
2022-12-18T06:03:08.078Z,-1.1
2022-12-18T06:08:07.872Z,-1.0
2022-12-18T06:13:07.807Z,-1.0
2022-12-18T06:18:07.862Z,-1.0
2022-12-18T06:23:07.776Z,-0.9
2022-12-18T06:28:07.871Z,-0.9
2022-12-18T06:33:07.844Z,-0.8
2022-12-18T06:38:07.870Z,-0.9
2022-12-18T06:43:07.798Z,-0.8
2022-12-18T06:48:07.867Z,-1.0
2022-12-18T06:53:07.793Z,-0.8
2022-12-18T06:58:07.898Z,-1.0
2022-12-18T07:03:07.813Z,-0.9
2022-12-18T07:08:07.874Z,-0.8
2022-12-18T07:13:07.825Z,-0.8
2022-12-18T07:18:07.870Z,-0.9
2022-12-18T07:23:07.806Z,-0.8
2022-12-18T07:28:10.583Z,-0.8
2022-12-18T07:33:07.799Z,-0.8
2022-12-18T07:38:07.872Z,-0.8
2022-12-18T07:43:07.807Z,-0.7
2022-12-18T07:48:07.875Z,-0.7
2022-12-18T07:53:07.798Z,-0.7
2022-12-18T07:58:07.873Z,-0.7
2022-12-18T08:03:07.824Z,-0.7
2022-12-18T08:08:07.872Z,-0.7
2022-12-18T08:13:07.795Z,-0.6
2022-12-18T08:18:12.699Z,-0.7
2022-12-18T08:23:07.789Z,-0.6
2022-12-18T08:28:07.876Z,-0.6
2022-12-18T08:33:07.803Z,-0.7
2022-12-18T08:38:07.880Z,-0.7
2022-12-18T08:43:07.808Z,-0.6
2022-12-18T08:48:07.885Z,-0.6
2022-12-18T08:53:07.819Z,-0.7
2022-12-18T08:58:07.879Z,-0.6
2022-12-18T09:03:07.852Z,-0.6
2022-12-18T09:08:07.887Z,-0.7
2022-12-18T09:13:07.802Z,-0.7
2022-12-18T09:18:07.890Z,-0.7
2022-12-18T09:23:07.811Z,-0.7
2022-12-18T09:28:07.936Z,-0.6
2022-12-18T09:33:07.781Z,-0.6
2022-12-18T09:38:07.879Z,-0.6
2022-12-18T09:43:08.399Z,-0.6
2022-12-18T09:48:07.875Z,-0.6
2022-12-18T09:53:07.830Z,-0.6
2022-12-18T09:58:07.881Z,-0.6
2022-12-18T10:03:07.976Z,-0.5
2022-12-18T10:08:07.871Z,-0.4
2022-12-18T10:13:07.808Z,-0.3
2022-12-18T10:18:07.882Z,-0.2
2022-12-18T10:23:07.795Z,-0.1
2022-12-18T10:28:07.878Z,-0.2
2022-12-18T10:33:07.781Z,-0.2
2022-12-18T10:38:07.866Z,-0.2
2022-12-18T10:43:07.797Z,-0.2
2022-12-18T10:48:07.801Z,-0.1
2022-12-18T10:53:07.796Z,-0.1
2022-12-18T10:58:07.872Z,-0.1
2022-12-18T11:03:07.920Z,-0.0
2022-12-18T11:08:07.867Z,0.0
2022-12-18T11:13:07.828Z,-0.0
2022-12-18T11:18:07.792Z,0.1
2022-12-18T11:23:07.816Z,0.2
2022-12-18T11:28:07.899Z,0.1
2022-12-18T11:33:07.809Z,0.2
2022-12-18T11:38:07.919Z,0.2
2022-12-18T11:43:07.823Z,0.2
2022-12-18T11:48:07.876Z,0.4
2022-12-18T11:53:07.828Z,0.3
2022-12-18T11:58:07.869Z,0.4
2022-12-18T12:03:07.981Z,0.4
2022-12-18T12:08:07.883Z,0.4
2022-12-18T12:13:07.833Z,0.6
2022-12-18T12:18:11.272Z,0.5
2022-12-18T12:23:07.862Z,0.5
2022-12-18T12:28:07.916Z,0.6
2022-12-18T12:33:07.824Z,0.6
2022-12-18T12:38:07.883Z,0.7
2022-12-18T12:43:07.810Z,0.7
2022-12-18T12:48:07.873Z,0.8
2022-12-18T12:53:07.824Z,0.9
2022-12-18T12:58:07.874Z,0.9
2022-12-18T13:03:07.907Z,0.9
2022-12-18T13:08:07.886Z,1.0
2022-12-18T13:13:09.007Z,0.9
2022-12-18T13:18:07.882Z,1.0
2022-12-18T13:23:07.801Z,1.0
2022-12-18T13:28:07.942Z,0.9
2022-12-18T13:33:07.829Z,0.9
2022-12-18T13:38:07.926Z,0.9
2022-12-18T13:43:07.840Z,1.0
2022-12-18T13:48:07.889Z,0.9
2022-12-18T13:53:07.818Z,0.9
2022-12-18T13:58:07.930Z,0.9
2022-12-18T14:03:08.072Z,0.9
2022-12-18T14:08:07.887Z,0.8
2022-12-18T14:13:07.863Z,0.9
2022-12-18T14:18:07.888Z,0.8
2022-12-18T14:23:07.835Z,0.8
2022-12-18T14:28:07.907Z,0.9
2022-12-18T14:33:07.833Z,0.8
2022-12-18T14:38:07.928Z,0.9
2022-12-18T14:43:07.830Z,0.9
2022-12-18T14:48:08.048Z,0.8
2022-12-18T14:53:07.837Z,0.8
2022-12-18T14:58:07.902Z,0.8
2022-12-18T15:03:07.928Z,0.9
2022-12-18T15:08:07.948Z,0.8
2022-12-18T15:13:07.836Z,0.8
2022-12-18T15:18:07.922Z,0.8
2022-12-18T15:23:07.833Z,0.7
2022-12-18T15:28:07.918Z,0.7
2022-12-18T15:33:07.830Z,0.7
2022-12-18T15:38:07.911Z,0.7
2022-12-18T15:43:07.849Z,0.7
2022-12-18T15:48:07.836Z,0.7
2022-12-18T15:53:07.827Z,0.7
2022-12-18T15:58:07.920Z,0.7
2022-12-18T16:03:08.092Z,0.7
2022-12-18T16:08:07.916Z,0.7
2022-12-18T16:13:07.877Z,0.9
2022-12-18T16:18:07.911Z,0.8
2022-12-18T16:23:07.848Z,0.7
2022-12-18T16:28:07.834Z,0.8
2022-12-18T16:33:07.895Z,0.9
2022-12-18T16:38:07.920Z,0.9
2022-12-18T16:43:07.830Z,0.9
2022-12-18T16:48:07.971Z,0.9
2022-12-18T16:53:07.841Z,1.0
2022-12-18T16:58:07.942Z,1.0
2022-12-18T17:03:08.016Z,1.0
2022-12-18T17:08:07.978Z,1.0
2022-12-18T17:13:07.852Z,1.0
2022-12-18T17:18:07.949Z,1.2
2022-12-18T17:23:07.837Z,1.2
2022-12-18T17:28:07.944Z,1.2
2022-12-18T17:33:07.849Z,1.2
2022-12-18T17:38:07.937Z,1.4
2022-12-18T17:43:07.836Z,1.4
2022-12-18T17:48:07.949Z,1.5
2022-12-18T17:53:07.861Z,1.6
2022-12-18T17:58:07.939Z,1.7
2022-12-18T18:03:08.009Z,1.7
2022-12-18T18:08:07.937Z,1.9
2022-12-18T18:13:07.849Z,2.0
2022-12-18T18:18:07.942Z,2.0
2022-12-18T18:23:07.848Z,2.1
2022-12-18T18:28:07.890Z,2.2
2022-12-18T18:33:12.074Z,2.3
2022-12-18T18:38:07.918Z,2.3
2022-12-18T18:43:07.856Z,2.3
2022-12-18T18:48:07.886Z,2.3
2022-12-18T18:53:07.851Z,2.2
2022-12-18T18:58:07.917Z,2.2
2022-12-18T19:03:07.927Z,2.2
2022-12-18T19:08:07.918Z,2.3
2022-12-18T19:13:07.854Z,2.3
2022-12-18T19:18:07.885Z,2.3
2022-12-18T19:23:07.849Z,2.3
2022-12-18T19:28:10.024Z,2.3
2022-12-18T19:33:34.055Z,2.3
2022-12-18T19:38:07.916Z,2.3
2022-12-18T19:43:07.850Z,2.3
2022-12-18T19:48:07.883Z,2.3
2022-12-18T19:53:07.886Z,2.3
2022-12-18T19:58:07.907Z,2.4
2022-12-18T20:03:18.236Z,2.4
2022-12-18T20:08:07.892Z,2.5
2022-12-18T20:13:07.852Z,2.5
2022-12-18T20:18:07.911Z,2.6
2022-12-18T20:23:07.877Z,2.6
2022-12-18T20:28:07.884Z,2.7
2022-12-18T20:33:07.856Z,2.6
2022-12-18T20:38:07.968Z,2.7
2022-12-18T20:43:10.342Z,2.7
2022-12-18T20:48:07.890Z,2.7
2022-12-18T20:53:07.901Z,2.7
2022-12-18T20:58:07.917Z,2.8
2022-12-18T21:03:08.136Z,2.8
2022-12-18T21:08:07.906Z,2.8
2022-12-18T21:13:08.679Z,2.9
2022-12-18T21:18:07.889Z,3.0
2022-12-18T21:23:13.237Z,3.0
2022-12-18T21:28:07.920Z,3.0
2022-12-18T21:33:07.860Z,3.0
2022-12-18T21:38:07.884Z,3.1
2022-12-18T21:43:07.853Z,3.1
2022-12-18T21:48:07.887Z,3.1
2022-12-18T21:53:07.881Z,3.2
2022-12-18T21:58:07.970Z,3.2
2022-12-18T22:03:18.687Z,3.2
2022-12-18T22:08:07.966Z,3.3
2022-12-18T22:13:07.865Z,3.4
2022-12-18T22:18:07.973Z,3.4
2022-12-18T22:23:07.878Z,3.4
2022-12-18T22:28:07.941Z,3.4
2022-12-18T22:33:07.870Z,3.4
2022-12-18T22:38:07.998Z,3.4
2022-12-18T22:43:07.905Z,3.5
2022-12-18T22:48:07.899Z,3.5
2022-12-18T22:53:07.887Z,3.5
2022-12-18T22:58:07.887Z,3.7
2022-12-18T23:03:08.030Z,3.7
2022-12-18T23:08:07.974Z,3.7
2022-12-18T23:13:07.883Z,3.7
2022-12-18T23:18:08.008Z,3.7
2022-12-18T23:23:07.872Z,3.8
2022-12-18T23:28:07.889Z,3.8
2022-12-18T23:33:07.873Z,3.9
2022-12-18T23:38:07.970Z,3.9
2022-12-18T23:43:07.876Z,3.9
2022-12-18T23:48:07.917Z,4.0
2022-12-18T23:53:07.897Z,4.2
2022-12-18T23:58:07.901Z,4.0
